sensor_id;sensor_type;location;lat;lon;timestamp;P1;durP1;ratioP1;P2;durP2;ratioP2
48361;SDS011;34510;51.888;5.670;2023-04-06T00:02:14;709.88;;;264.05;;
48361;SDS011;34510;51.888;5.670;2023-04-06T00:07:16;712.38;;;266.10;;
48361;SDS011;34510;51.888;5.670;2023-04-06T00:12:18;715.42;;;274.15;;
48361;SDS011;34510;51.888;5.670;2023-04-06T00:17:20;713.03;;;270.65;;
48361;SDS011;34510;51.888;5.670;2023-04-06T00:22:22;714.17;;;261.52;;
48361;SDS011;34510;51.888;5.670;2023-04-06T00:27:24;715.72;;;264.35;;
48361;SDS011;34510;51.888;5.670;2023-04-06T00:32:26;717.78;;;265.05;;
48361;SDS011;34510;51.888;5.670;2023-04-06T00:37:29;711.72;;;257.13;;
48361;SDS011;34510;51.888;5.670;2023-04-06T00:42:31;713.65;;;264.00;;
48361;SDS011;34510;51.888;5.670;2023-04-06T00:47:33;711.67;;;256.88;;
48361;SDS011;34510;51.888;5.670;2023-04-06T00:52:35;703.05;;;253.43;;
48361;SDS011;34510;51.888;5.670;2023-04-06T00:57:39;704.03;;;243.75;;
48361;SDS011;34510;51.888;5.670;2023-04-06T01:02:41;704.95;;;245.40;;
48361;SDS011;34510;51.888;5.670;2023-04-06T01:07:45;705.45;;;261.63;;
48361;SDS011;34510;51.888;5.670;2023-04-06T01:12:51;702.70;;;246.40;;
48361;SDS011;34510;51.888;5.670;2023-04-06T01:18:07;707.20;;;257.88;;
48361;SDS011;34510;51.888;5.670;2023-04-06T01:23:17;703.15;;;247.75;;
48361;SDS011;34510;51.888;5.670;2023-04-06T01:28:22;705.97;;;251.32;;
48361;SDS011;34510;51.888;5.670;2023-04-06T01:33:48;704.88;;;244.82;;
48361;SDS011;34510;51.888;5.670;2023-04-06T01:38:53;712.40;;;254.32;;
48361;SDS011;34510;51.888;5.670;2023-04-06T01:44:03;708.33;;;249.60;;
48361;SDS011;34510;51.888;5.670;2023-04-06T01:49:06;706.85;;;245.20;;
48361;SDS011;34510;51.888;5.670;2023-04-06T01:54:12;708.03;;;254.15;;
48361;SDS011;34510;51.888;5.670;2023-04-06T01:59:29;709.03;;;256.53;;
48361;SDS011;34510;51.888;5.670;2023-04-06T02:04:33;711.20;;;263.30;;
48361;SDS011;34510;51.888;5.670;2023-04-06T02:09:43;709.22;;;264.42;;
48361;SDS011;34510;51.888;5.670;2023-04-06T02:14:54;712.42;;;274.10;;
48361;SDS011;34510;51.888;5.670;2023-04-06T02:19:56;704.40;;;249.65;;
48361;SDS011;34510;51.888;5.670;2023-04-06T02:24:58;714.13;;;267.73;;
48361;SDS011;34510;51.888;5.670;2023-04-06T02:30:00;712.35;;;270.80;;
48361;SDS011;34510;51.888;5.670;2023-04-06T02:35:02;708.38;;;266.83;;
48361;SDS011;34510;51.888;5.670;2023-04-06T02:40:07;713.53;;;264.83;;
48361;SDS011;34510;51.888;5.670;2023-04-06T02:45:09;720.20;;;278.10;;
48361;SDS011;34510;51.888;5.670;2023-04-06T02:50:16;712.95;;;277.02;;
48361;SDS011;34510;51.888;5.670;2023-04-06T02:55:27;710.75;;;273.55;;
48361;SDS011;34510;51.888;5.670;2023-04-06T03:00:29;714.25;;;282.55;;
48361;SDS011;34510;51.888;5.670;2023-04-06T03:05:32;718.83;;;289.33;;
48361;SDS011;34510;51.888;5.670;2023-04-06T03:10:34;713.97;;;276.85;;
48361;SDS011;34510;51.888;5.670;2023-04-06T03:15:36;716.28;;;283.63;;
48361;SDS011;34510;51.888;5.670;2023-04-06T03:20:47;715.00;;;277.17;;
48361;SDS011;34510;51.888;5.670;2023-04-06T03:25:51;714.90;;;284.35;;
48361;SDS011;34510;51.888;5.670;2023-04-06T03:30:54;717.33;;;284.13;;
48361;SDS011;34510;51.888;5.670;2023-04-06T03:36:19;713.15;;;271.90;;
48361;SDS011;34510;51.888;5.670;2023-04-06T03:41:22;719.03;;;280.35;;
48361;SDS011;34510;51.888;5.670;2023-04-06T03:46:44;714.10;;;284.30;;
48361;SDS011;34510;51.888;5.670;2023-04-06T03:51:46;720.47;;;289.08;;
48361;SDS011;34510;51.888;5.670;2023-04-06T03:56:48;713.05;;;284.23;;
48361;SDS011;34510;51.888;5.670;2023-04-06T04:01:51;714.60;;;285.15;;
48361;SDS011;34510;51.888;5.670;2023-04-06T04:06:53;714.50;;;287.88;;
48361;SDS011;34510;51.888;5.670;2023-04-06T04:11:55;715.05;;;282.23;;
48361;SDS011;34510;51.888;5.670;2023-04-06T04:16:57;718.20;;;295.40;;
48361;SDS011;34510;51.888;5.670;2023-04-06T04:21:59;720.47;;;285.75;;
48361;SDS011;34510;51.888;5.670;2023-04-06T04:27:07;716.85;;;285.40;;
48361;SDS011;34510;51.888;5.670;2023-04-06T04:32:09;719.50;;;293.48;;
48361;SDS011;34510;51.888;5.670;2023-04-06T04:37:11;713.85;;;271.73;;
48361;SDS011;34510;51.888;5.670;2023-04-06T04:42:24;721.17;;;289.52;;
48361;SDS011;34510;51.888;5.670;2023-04-06T04:47:30;720.70;;;282.70;;
48361;SDS011;34510;51.888;5.670;2023-04-06T04:52:32;716.88;;;276.63;;
48361;SDS011;34510;51.888;5.670;2023-04-06T04:57:46;720.55;;;281.73;;
48361;SDS011;34510;51.888;5.670;2023-04-06T05:02:49;718.38;;;284.13;;
48361;SDS011;34510;51.888;5.670;2023-04-06T05:07:58;719.30;;;284.83;;
48361;SDS011;34510;51.888;5.670;2023-04-06T05:13:12;722.78;;;293.55;;
48361;SDS011;34510;51.888;5.670;2023-04-06T05:18:14;714.10;;;276.98;;
48361;SDS011;34510;51.888;5.670;2023-04-06T05:23:17;715.00;;;277.35;;
48361;SDS011;34510;51.888;5.670;2023-04-06T05:28:19;716.45;;;282.65;;
48361;SDS011;34510;51.888;5.670;2023-04-06T05:33:22;717.85;;;292.92;;
48361;SDS011;34510;51.888;5.670;2023-04-06T05:38:45;717.40;;;276.95;;
48361;SDS011;34510;51.888;5.670;2023-04-06T05:44:13;713.58;;;273.88;;
48361;SDS011;34510;51.888;5.670;2023-04-06T05:49:21;716.83;;;295.98;;
48361;SDS011;34510;51.888;5.670;2023-04-06T05:54:23;707.92;;;276.92;;
48361;SDS011;34510;51.888;5.670;2023-04-06T05:59:32;716.80;;;291.60;;
48361;SDS011;34510;51.888;5.670;2023-04-06T06:04:34;726.92;;;297.27;;
48361;SDS011;34510;51.888;5.670;2023-04-06T06:09:36;722.60;;;298.35;;
48361;SDS011;34510;51.888;5.670;2023-04-06T06:14:49;721.05;;;304.25;;
48361;SDS011;34510;51.888;5.670;2023-04-06T06:19:53;730.05;;;311.15;;
48361;SDS011;34510;51.888;5.670;2023-04-06T06:24:55;726.42;;;311.33;;
48361;SDS011;34510;51.888;5.670;2023-04-06T06:29:58;726.35;;;310.55;;
48361;SDS011;34510;51.888;5.670;2023-04-06T06:35:01;734.45;;;313.15;;
48361;SDS011;34510;51.888;5.670;2023-04-06T06:40:04;731.60;;;331.05;;
48361;SDS011;34510;51.888;5.670;2023-04-06T06:45:09;727.97;;;325.63;;
48361;SDS011;34510;51.888;5.670;2023-04-06T06:50:11;741.17;;;335.10;;
48361;SDS011;34510;51.888;5.670;2023-04-06T06:55:13;733.47;;;331.90;;
48361;SDS011;34510;51.888;5.670;2023-04-06T07:00:16;736.60;;;340.23;;
48361;SDS011;34510;51.888;5.670;2023-04-06T07:05:20;743.88;;;347.67;;
48361;SDS011;34510;51.888;5.670;2023-04-06T07:10:32;743.10;;;355.42;;
48361;SDS011;34510;51.888;5.670;2023-04-06T07:15:34;739.00;;;351.45;;
48361;SDS011;34510;51.888;5.670;2023-04-06T07:20:36;742.75;;;368.23;;
48361;SDS011;34510;51.888;5.670;2023-04-06T07:25:38;744.83;;;372.73;;
48361;SDS011;34510;51.888;5.670;2023-04-06T07:30:40;744.97;;;385.67;;
48361;SDS011;34510;51.888;5.670;2023-04-06T07:35:45;740.85;;;390.67;;
48361;SDS011;34510;51.888;5.670;2023-04-06T07:40:48;739.63;;;368.17;;
48361;SDS011;34510;51.888;5.670;2023-04-06T07:45:50;734.88;;;373.05;;
48361;SDS011;34510;51.888;5.670;2023-04-06T07:50:52;745.75;;;390.38;;
48361;SDS011;34510;51.888;5.670;2023-04-06T07:56:02;745.60;;;389.40;;
48361;SDS011;34510;51.888;5.670;2023-04-06T08:01:04;745.75;;;385.90;;
48361;SDS011;34510;51.888;5.670;2023-04-06T08:06:06;743.55;;;376.23;;
48361;SDS011;34510;51.888;5.670;2023-04-06T08:11:08;742.33;;;378.83;;
48361;SDS011;34510;51.888;5.670;2023-04-06T08:16:11;747.33;;;385.33;;
48361;SDS011;34510;51.888;5.670;2023-04-06T08:21:13;753.83;;;407.95;;
48361;SDS011;34510;51.888;5.670;2023-04-06T08:26:15;744.47;;;410.08;;
48361;SDS011;34510;51.888;5.670;2023-04-06T08:31:17;747.55;;;434.55;;
48361;SDS011;34510;51.888;5.670;2023-04-06T08:36:19;743.67;;;425.73;;
48361;SDS011;34510;51.888;5.670;2023-04-06T08:41:24;753.45;;;445.20;;
48361;SDS011;34510;51.888;5.670;2023-04-06T08:46:26;752.17;;;470.33;;
48361;SDS011;34510;51.888;5.670;2023-04-06T08:51:32;765.63;;;500.20;;
48361;SDS011;34510;51.888;5.670;2023-04-06T08:56:36;771.35;;;491.42;;
48361;SDS011;34510;51.888;5.670;2023-04-06T09:01:40;768.22;;;492.52;;
48361;SDS011;34510;51.888;5.670;2023-04-06T09:06:44;771.15;;;493.92;;
48361;SDS011;34510;51.888;5.670;2023-04-06T09:11:47;769.88;;;497.25;;
48361;SDS011;34510;51.888;5.670;2023-04-06T09:16:50;769.72;;;505.63;;
48361;SDS011;34510;51.888;5.670;2023-04-06T09:22:05;764.42;;;497.65;;
48361;SDS011;34510;51.888;5.670;2023-04-06T09:27:09;786.70;;;542.65;;
48361;SDS011;34510;51.888;5.670;2023-04-06T09:32:11;767.50;;;498.63;;
48361;SDS011;34510;51.888;5.670;2023-04-06T09:37:14;767.55;;;494.85;;
48361;SDS011;34510;51.888;5.670;2023-04-06T09:42:25;761.95;;;498.83;;
48361;SDS011;34510;51.888;5.670;2023-04-06T09:47:27;779.15;;;507.17;;
48361;SDS011;34510;51.888;5.670;2023-04-06T09:52:32;770.95;;;500.38;;
48361;SDS011;34510;51.888;5.670;2023-04-06T09:57:44;773.73;;;504.33;;
48361;SDS011;34510;51.888;5.670;2023-04-06T10:02:59;782.17;;;498.85;;
48361;SDS011;34510;51.888;5.670;2023-04-06T10:08:15;783.03;;;507.17;;
48361;SDS011;34510;51.888;5.670;2023-04-06T10:13:18;788.03;;;529.85;;
48361;SDS011;34510;51.888;5.670;2023-04-06T10:18:20;788.33;;;533.63;;
48361;SDS011;34510;51.888;5.670;2023-04-06T10:28:34;788.10;;;529.20;;
48361;SDS011;34510;51.888;5.670;2023-04-06T10:33:39;785.42;;;540.75;;
48361;SDS011;34510;51.888;5.670;2023-04-06T10:38:42;789.15;;;551.40;;
48361;SDS011;34510;51.888;5.670;2023-04-06T10:43:44;781.92;;;568.20;;
48361;SDS011;34510;51.888;5.670;2023-04-06T10:48:49;784.20;;;567.35;;
48361;SDS011;34510;51.888;5.670;2023-04-06T10:53:52;779.85;;;571.05;;
48361;SDS011;34510;51.888;5.670;2023-04-06T10:58:55;773.53;;;549.17;;
48361;SDS011;34510;51.888;5.670;2023-04-06T11:03:57;780.60;;;558.83;;
48361;SDS011;34510;51.888;5.670;2023-04-06T11:09:01;778.40;;;551.92;;
48361;SDS011;34510;51.888;5.670;2023-04-06T11:14:02;781.38;;;544.53;;
48361;SDS011;34510;51.888;5.670;2023-04-06T11:19:05;775.92;;;533.65;;
48361;SDS011;34510;51.888;5.670;2023-04-06T11:24:26;779.58;;;528.22;;
48361;SDS011;34510;51.888;5.670;2023-04-06T11:29:29;773.10;;;516.03;;
48361;SDS011;34510;51.888;5.670;2023-04-06T11:34:33;774.45;;;525.88;;
48361;SDS011;34510;51.888;5.670;2023-04-06T11:44:58;769.40;;;509.02;;
48361;SDS011;34510;51.888;5.670;2023-04-06T11:50:10;767.47;;;507.90;;
48361;SDS011;34510;51.888;5.670;2023-04-06T11:55:15;761.55;;;502.33;;
48361;SDS011;34510;51.888;5.670;2023-04-06T12:00:19;757.35;;;495.38;;
48361;SDS011;34510;51.888;5.670;2023-04-06T12:05:22;768.75;;;494.63;;
48361;SDS011;34510;51.888;5.670;2023-04-06T12:10:25;757.80;;;466.70;;
48361;SDS011;34510;51.888;5.670;2023-04-06T12:15:27;764.40;;;493.77;;
48361;SDS011;34510;51.888;5.670;2023-04-06T12:20:29;758.55;;;466.00;;
48361;SDS011;34510;51.888;5.670;2023-04-06T12:25:31;755.53;;;464.52;;
48361;SDS011;34510;51.888;5.670;2023-04-06T12:30:34;760.65;;;479.33;;
48361;SDS011;34510;51.888;5.670;2023-04-06T12:35:39;751.78;;;458.23;;
48361;SDS011;34510;51.888;5.670;2023-04-06T12:40:41;753.15;;;469.98;;
48361;SDS011;34510;51.888;5.670;2023-04-06T12:45:43;751.90;;;464.70;;
48361;SDS011;34510;51.888;5.670;2023-04-06T12:50:53;753.60;;;459.55;;
48361;SDS011;34510;51.888;5.670;2023-04-06T12:55:59;754.92;;;462.83;;
48361;SDS011;34510;51.888;5.670;2023-04-06T13:01:05;754.78;;;458.65;;
48361;SDS011;34510;51.888;5.670;2023-04-06T13:06:08;748.58;;;446.70;;
48361;SDS011;34510;51.888;5.670;2023-04-06T13:11:11;759.78;;;466.23;;
48361;SDS011;34510;51.888;5.670;2023-04-06T13:16:13;757.08;;;460.15;;
48361;SDS011;34510;51.888;5.670;2023-04-06T13:21:15;755.55;;;450.23;;
48361;SDS011;34510;51.888;5.670;2023-04-06T13:26:17;755.83;;;449.98;;
48361;SDS011;34510;51.888;5.670;2023-04-06T13:31:19;752.60;;;439.05;;
48361;SDS011;34510;51.888;5.670;2023-04-06T13:36:21;748.47;;;439.05;;
48361;SDS011;34510;51.888;5.670;2023-04-06T13:41:23;749.75;;;444.40;;
48361;SDS011;34510;51.888;5.670;2023-04-06T13:46:28;754.67;;;440.40;;
48361;SDS011;34510;51.888;5.670;2023-04-06T13:51:30;751.72;;;442.08;;
48361;SDS011;34510;51.888;5.670;2023-04-06T13:56:32;758.10;;;454.20;;
48361;SDS011;34510;51.888;5.670;2023-04-06T14:01:34;757.42;;;456.15;;
48361;SDS011;34510;51.888;5.670;2023-04-06T14:06:36;749.20;;;441.67;;
48361;SDS011;34510;51.888;5.670;2023-04-06T14:11:38;749.83;;;445.00;;
48361;SDS011;34510;51.888;5.670;2023-04-06T14:16:40;753.83;;;446.08;;
48361;SDS011;34510;51.888;5.670;2023-04-06T14:21:45;748.03;;;432.15;;
48361;SDS011;34510;51.888;5.670;2023-04-06T14:26:47;747.83;;;431.83;;
48361;SDS011;34510;51.888;5.670;2023-04-06T14:31:49;751.10;;;446.23;;
48361;SDS011;34510;51.888;5.670;2023-04-06T14:36:51;745.88;;;427.08;;
48361;SDS011;34510;51.888;5.670;2023-04-06T14:41:53;747.45;;;422.05;;
48361;SDS011;34510;51.888;5.670;2023-04-06T14:46:55;753.10;;;428.00;;
48361;SDS011;34510;51.888;5.670;2023-04-06T14:51:57;747.88;;;427.77;;
48361;SDS011;34510;51.888;5.670;2023-04-06T14:57:00;754.20;;;438.60;;
48361;SDS011;34510;51.888;5.670;2023-04-06T15:02:03;751.92;;;419.90;;
48361;SDS011;34510;51.888;5.670;2023-04-06T15:07:05;747.65;;;415.25;;
48361;SDS011;34510;51.888;5.670;2023-04-06T15:12:07;751.78;;;427.02;;
48361;SDS011;34510;51.888;5.670;2023-04-06T15:17:09;748.42;;;437.15;;
48361;SDS011;34510;51.888;5.670;2023-04-06T15:22:11;751.38;;;426.10;;
48361;SDS011;34510;51.888;5.670;2023-04-06T15:27:13;746.28;;;416.33;;
48361;SDS011;34510;51.888;5.670;2023-04-06T15:32:16;751.55;;;428.40;;
48361;SDS011;34510;51.888;5.670;2023-04-06T15:37:19;747.33;;;425.55;;
48361;SDS011;34510;51.888;5.670;2023-04-06T15:42:21;750.40;;;418.50;;
48361;SDS011;34510;51.888;5.670;2023-04-06T15:47:23;739.70;;;404.83;;
48361;SDS011;34510;51.888;5.670;2023-04-06T15:52:25;735.97;;;407.27;;
48361;SDS011;34510;51.888;5.670;2023-04-06T15:57:27;743.85;;;424.55;;
48361;SDS011;34510;51.888;5.670;2023-04-06T16:02:29;746.45;;;412.17;;
48361;SDS011;34510;51.888;5.670;2023-04-06T16:07:31;741.50;;;411.23;;
48361;SDS011;34510;51.888;5.670;2023-04-06T16:12:33;742.17;;;410.30;;
48361;SDS011;34510;51.888;5.670;2023-04-06T16:17:35;742.80;;;408.38;;
48361;SDS011;34510;51.888;5.670;2023-04-06T16:22:37;747.70;;;418.20;;
48361;SDS011;34510;51.888;5.670;2023-04-06T16:27:39;744.17;;;402.45;;
48361;SDS011;34510;51.888;5.670;2023-04-06T16:32:42;747.95;;;423.85;;
48361;SDS011;34510;51.888;5.670;2023-04-06T16:37:45;741.92;;;410.40;;
48361;SDS011;34510;51.888;5.670;2023-04-06T16:42:47;749.13;;;406.70;;
48361;SDS011;34510;51.888;5.670;2023-04-06T16:47:49;747.80;;;406.63;;
48361;SDS011;34510;51.888;5.670;2023-04-06T16:52:51;753.50;;;427.63;;
48361;SDS011;34510;51.888;5.670;2023-04-06T16:57:54;743.22;;;411.02;;
48361;SDS011;34510;51.888;5.670;2023-04-06T17:03:00;746.45;;;413.60;;
48361;SDS011;34510;51.888;5.670;2023-04-06T17:08:02;745.15;;;407.00;;
48361;SDS011;34510;51.888;5.670;2023-04-06T17:13:04;746.03;;;419.10;;
48361;SDS011;34510;51.888;5.670;2023-04-06T17:18:07;742.58;;;407.40;;
48361;SDS011;34510;51.888;5.670;2023-04-06T17:23:10;747.50;;;414.75;;
48361;SDS011;34510;51.888;5.670;2023-04-06T17:28:12;740.75;;;409.00;;
48361;SDS011;34510;51.888;5.670;2023-04-06T17:33:13;738.63;;;415.00;;
48361;SDS011;34510;51.888;5.670;2023-04-06T17:38:17;745.38;;;426.33;;
48361;SDS011;34510;51.888;5.670;2023-04-06T17:43:20;748.15;;;416.58;;
48361;SDS011;34510;51.888;5.670;2023-04-06T17:48:22;738.20;;;392.90;;
48361;SDS011;34510;51.888;5.670;2023-04-06T17:53:24;752.47;;;432.08;;
48361;SDS011;34510;51.888;5.670;2023-04-06T17:58:27;752.08;;;428.23;;
48361;SDS011;34510;51.888;5.670;2023-04-06T18:03:29;747.15;;;413.63;;
48361;SDS011;34510;51.888;5.670;2023-04-06T18:08:32;744.72;;;403.38;;
48361;SDS011;34510;51.888;5.670;2023-04-06T18:13:34;752.50;;;433.17;;
48361;SDS011;34510;51.888;5.670;2023-04-06T18:18:40;745.75;;;404.73;;
48361;SDS011;34510;51.888;5.670;2023-04-06T18:23:42;746.67;;;403.75;;
48361;SDS011;34510;51.888;5.670;2023-04-06T18:28:44;747.63;;;411.20;;
48361;SDS011;34510;51.888;5.670;2023-04-06T18:33:47;749.25;;;414.70;;
48361;SDS011;34510;51.888;5.670;2023-04-06T18:38:49;746.60;;;410.65;;
48361;SDS011;34510;51.888;5.670;2023-04-06T18:43:51;747.15;;;416.20;;
48361;SDS011;34510;51.888;5.670;2023-04-06T18:48:53;750.22;;;425.05;;
48361;SDS011;34510;51.888;5.670;2023-04-06T18:53:55;750.00;;;424.33;;
48361;SDS011;34510;51.888;5.670;2023-04-06T18:58:58;753.83;;;431.95;;
48361;SDS011;34510;51.888;5.670;2023-04-06T19:04:00;749.38;;;423.00;;
48361;SDS011;34510;51.888;5.670;2023-04-06T19:09:02;749.40;;;430.73;;
48361;SDS011;34510;51.888;5.670;2023-04-06T19:14:05;746.25;;;418.92;;
48361;SDS011;34510;51.888;5.670;2023-04-06T19:19:07;751.22;;;429.02;;
48361;SDS011;34510;51.888;5.670;2023-04-06T19:24:10;750.22;;;425.30;;
48361;SDS011;34510;51.888;5.670;2023-04-06T19:29:12;747.28;;;422.60;;
48361;SDS011;34510;51.888;5.670;2023-04-06T19:34:14;743.72;;;411.38;;
48361;SDS011;34510;51.888;5.670;2023-04-06T19:39:18;751.08;;;422.92;;
48361;SDS011;34510;51.888;5.670;2023-04-06T19:44:20;750.40;;;428.80;;
48361;SDS011;34510;51.888;5.670;2023-04-06T19:49:22;752.10;;;435.48;;
48361;SDS011;34510;51.888;5.670;2023-04-06T19:54:24;754.28;;;426.23;;
48361;SDS011;34510;51.888;5.670;2023-04-06T19:59:27;749.90;;;430.30;;
48361;SDS011;34510;51.888;5.670;2023-04-06T20:04:29;756.75;;;449.75;;
48361;SDS011;34510;51.888;5.670;2023-04-06T20:09:31;747.88;;;425.48;;
48361;SDS011;34510;51.888;5.670;2023-04-06T20:14:33;753.17;;;442.15;;
48361;SDS011;34510;51.888;5.670;2023-04-06T20:19:36;752.25;;;438.35;;
48361;SDS011;34510;51.888;5.670;2023-04-06T20:24:38;753.35;;;446.02;;
48361;SDS011;34510;51.888;5.670;2023-04-06T20:29:40;752.28;;;435.40;;
48361;SDS011;34510;51.888;5.670;2023-04-06T20:34:42;755.72;;;444.35;;
48361;SDS011;34510;51.888;5.670;2023-04-06T20:39:44;752.08;;;432.83;;
48361;SDS011;34510;51.888;5.670;2023-04-06T20:44:46;758.35;;;454.77;;
48361;SDS011;34510;51.888;5.670;2023-04-06T20:49:48;756.72;;;450.70;;
48361;SDS011;34510;51.888;5.670;2023-04-06T20:54:50;759.85;;;474.42;;
48361;SDS011;34510;51.888;5.670;2023-04-06T20:59:52;757.78;;;451.83;;
48361;SDS011;34510;51.888;5.670;2023-04-06T21:04:54;757.70;;;458.35;;
48361;SDS011;34510;51.888;5.670;2023-04-06T21:09:56;761.55;;;469.40;;
48361;SDS011;34510;51.888;5.670;2023-04-06T21:14:57;754.70;;;448.63;;
48361;SDS011;34510;51.888;5.670;2023-04-06T21:19:59;765.28;;;474.65;;
48361;SDS011;34510;51.888;5.670;2023-04-06T21:25:01;769.30;;;470.63;;
48361;SDS011;34510;51.888;5.670;2023-04-06T21:30:03;763.00;;;459.23;;
48361;SDS011;34510;51.888;5.670;2023-04-06T21:35:06;772.25;;;482.08;;
48361;SDS011;34510;51.888;5.670;2023-04-06T21:40:08;770.33;;;468.90;;
48361;SDS011;34510;51.888;5.670;2023-04-06T21:45:11;765.28;;;462.52;;
48361;SDS011;34510;51.888;5.670;2023-04-06T21:50:13;770.63;;;472.98;;
48361;SDS011;34510;51.888;5.670;2023-04-06T21:55:18;767.17;;;469.00;;
48361;SDS011;34510;51.888;5.670;2023-04-06T22:00:21;766.95;;;464.65;;
48361;SDS011;34510;51.888;5.670;2023-04-06T22:05:23;769.35;;;469.38;;
48361;SDS011;34510;51.888;5.670;2023-04-06T22:10:25;771.17;;;476.92;;
48361;SDS011;34510;51.888;5.670;2023-04-06T22:15:27;770.33;;;480.15;;
48361;SDS011;34510;51.888;5.670;2023-04-06T22:20:29;773.40;;;480.50;;
48361;SDS011;34510;51.888;5.670;2023-04-06T22:25:31;776.22;;;487.50;;
48361;SDS011;34510;51.888;5.670;2023-04-06T22:30:33;776.95;;;488.25;;
48361;SDS011;34510;51.888;5.670;2023-04-06T22:35:35;771.40;;;479.02;;
48361;SDS011;34510;51.888;5.670;2023-04-06T22:40:37;772.33;;;459.83;;
48361;SDS011;34510;51.888;5.670;2023-04-06T22:45:39;776.90;;;473.70;;
48361;SDS011;34510;51.888;5.670;2023-04-06T22:50:41;768.25;;;459.75;;
48361;SDS011;34510;51.888;5.670;2023-04-06T22:55:43;766.67;;;462.13;;
48361;SDS011;34510;51.888;5.670;2023-04-06T23:00:45;766.72;;;470.13;;
48361;SDS011;34510;51.888;5.670;2023-04-06T23:05:47;764.42;;;439.98;;
48361;SDS011;34510;51.888;5.670;2023-04-06T23:10:49;769.28;;;452.40;;
48361;SDS011;34510;51.888;5.670;2023-04-06T23:15:51;767.33;;;456.35;;
48361;SDS011;34510;51.888;5.670;2023-04-06T23:20:53;772.85;;;461.48;;
48361;SDS011;34510;51.888;5.670;2023-04-06T23:25:55;774.63;;;466.08;;
48361;SDS011;34510;51.888;5.670;2023-04-06T23:30:57;765.03;;;449.67;;
48361;SDS011;34510;51.888;5.670;2023-04-06T23:35:59;770.00;;;452.80;;
48361;SDS011;34510;51.888;5.670;2023-04-06T23:41:01;763.38;;;449.23;;
48361;SDS011;34510;51.888;5.670;2023-04-06T23:46:03;765.75;;;448.50;;
48361;SDS011;34510;51.888;5.670;2023-04-06T23:51:05;763.28;;;442.30;;
48361;SDS011;34510;51.888;5.670;2023-04-06T23:56:07;760.25;;;431.02;;
